| time (UTC) | temp C | wind direction | speed KPH | gust KPH | rain 1hr cm | rain 24hr cm | rain mn cm | humidity % | barometer mb |
| 20260902130023 | 22 | 251 | 16.1 | 24.1 | 0.00 | 0.00 | 0.00 | 72 | 1020.0 |
| 20260902124527 | 22 | 200 | 14.5 | 25.7 | 0.00 | 0.00 | 0.00 | 73 | 1020.0 |
| 20260902123045 | 22 | 189 | 16.1 | 24.1 | 0.00 | 0.00 | 0.00 | 72 | 1020.0 |
| 20260902121534 | 22 | 226 | 14.5 | 27.4 | 0.00 | 0.00 | 0.00 | 1020.0 | |
| 20260902120032 | 22 | 219 | 19.3 | 27.4 | 0.00 | 0.00 | 0.00 | 1020.0 | |
| 20260902114537 | 22 | 237 | 19.3 | 25.7 | 0.00 | 0.00 | 0.00 | 1020.1 | |
| 20260902113030 | 22 | 216 | 17.7 | 24.1 | 0.00 | 0.00 | 0.00 | 74 | 1020.2 |
| 20260902111543 | 21 | 232 | 14.5 | 22.5 | 0.00 | 0.00 | 0.00 | 75 | 1020.4 |
| 20260902110017 | 21 | 231 | 14.5 | 22.5 | 0.00 | 0.00 | 0.00 | 76 | 1020.6 |
| 20260902104525 | 21 | 234 | 14.5 | 22.5 | 0.00 | 0.00 | 0.00 | 76 | 1020.7 |
| 20260902103007 | 21 | 226 | 14.5 | 22.5 | 0.00 | 0.00 | 0.00 | 75 | 1020.8 |
| 20260902101513 | 21 | 243 | 12.9 | 20.9 | 0.00 | 0.00 | 0.00 | 76 | 1020.7 |
| 20260902100018 | 20 | 237 | 12.9 | 20.9 | 0.00 | 0.00 | 0.00 | 78 | 1020.5 |
| 20260902094524 | 20 | 259 | 12.9 | 22.5 | 0.00 | 0.00 | 0.00 | 79 | 1020.5 |
| 20260902093006 | 20 | 269 | 9.7 | 20.9 | 0.00 | 0.00 | 0.00 | 80 | 1020.4 |
| 20260902091514 | 20 | 261 | 12.9 | 19.3 | 0.00 | 0.00 | 0.00 | 81 | 1020.0 |
| 20260902090015 | 20 | 253 | 11.3 | 16.1 | 0.00 | 0.00 | 0.00 | 82 | 1020.1 |
| 20260902084520 | 19 | 229 | 8.0 | 16.1 | 0.00 | 0.00 | 0.00 | 83 | 1019.9 |
| 20260902083024 | 19 | 242 | 8.0 | 12.9 | 0.00 | 0.00 | 0.00 | 83 | 1020.0 |
| 20260902081508 | 18 | 270 | 11.3 | 14.5 | 0.00 | 0.00 | 0.00 | 83 | 1020.0 |
| 20260902080013 | 17 | 247 | 4.8 | 9.7 | 0.00 | 0.00 | 0.00 | 87 | 1019.9 |
| 20260902074520 | 17 | 304 | 3.2 | 9.7 | 0.00 | 0.00 | 0.00 | 90 | 1019.9 |
| 20260902073034 | 16 | 283 | 6.4 | 11.3 | 0.00 | 0.00 | 0.00 | 91 | 1019.6 |
| 20260902071534 | 16 | 277 | 3.2 | 11.3 | 0.00 | 0.00 | 0.00 | 92 | 1019.5 |
| 20260902070011 | 16 | 283 | 4.8 | 9.7 | 0.00 | 0.00 | 0.00 | 91 | 1019.5 |
| 20260902064533 | 16 | 309 | 6.4 | 14.5 | 0.00 | 0.00 | 0.00 | 91 | 1019.4 |
| 20260902063022 | 16 | 300 | 9.7 | 17.7 | 0.00 | 0.00 | 0.00 | 92 | 1019.3 |
| 20260902061528 | 15 | 292 | 9.7 | 14.5 | 0.00 | 0.00 | 0.00 | 91 | 1018.9 |
| 20260902060009 | 16 | 290 | 9.7 | 14.5 | 0.00 | 0.00 | 0.00 | 91 | 1019.0 |
| 20260902054515 | 16 | 303 | 9.7 | 16.1 | 0.00 | 0.00 | 0.00 | 91 | 1019.0 |
| 20260902053020 | 16 | 311 | 11.3 | 19.3 | 0.00 | 0.00 | 0.00 | 91 | 1018.9 |
| 20260902051527 | 16 | 284 | 12.9 | 17.7 | 0.00 | 0.00 | 0.00 | 91 | 1018.8 |
| 20260902050034 | 16 | 296 | 12.9 | 19.3 | 0.00 | 0.00 | 0.00 | 91 | 1018.8 |
| 20260902044512 | 16 | 294 | 9.7 | 17.7 | 0.00 | 0.00 | 0.00 | 90 | 1018.9 |
| 20260902043020 | 16 | 311 | 12.9 | 17.7 | 0.00 | 0.00 | 0.00 | 90 | 1018.8 |
| 20260902041540 | 16 | 288 | 12.9 | 20.9 | 0.00 | 0.00 | 0.00 | 90 | 1018.8 |
| 20260902040030 | 16 | 292 | 12.9 | 19.3 | 0.00 | 0.00 | 0.00 | 90 | 1018.9 |
| 20260902034533 | 16 | 318 | 12.9 | 20.9 | 0.00 | 0.00 | 0.00 | 90 | 1019.0 |
| 20260902033018 | 16 | 309 | 12.9 | 19.3 | 0.00 | 0.00 | 0.00 | 90 | 1018.8 |
| 20260902031525 | 15 | 294 | 9.7 | 14.5 | 0.00 | 0.00 | 0.00 | 90 | 1018.9 |
| 20260902030028 | 15 | 292 | 9.7 | 14.5 | 0.00 | 0.00 | 0.00 | 90 | 1018.8 |
| 20260902024530 | 16 | 278 | 12.9 | 20.9 | 0.00 | 0.00 | 0.00 | 89 | 1018.7 |
| 20260902023030 | 16 | 288 | 11.3 | 17.7 | 0.00 | 0.00 | 0.00 | 89 | 1018.9 |
| 20260902021519 | 16 | 296 | 12.9 | 17.7 | 0.00 | 0.00 | 0.00 | 88 | 1019.2 |
| 20260902020044 | 16 | 298 | 11.3 | 17.7 | 0.00 | 0.00 | 0.00 | 88 | 1019.3 |
| 20260902014529 | 16 | 290 | 9.7 | 14.5 | 0.00 | 0.00 | 0.00 | 87 | 1019.5 |
| 20260902013037 | 16 | 301 | 8.0 | 12.9 | 0.00 | 0.00 | 0.00 | 87 | 1019.6 |
| 20260902011519 | 16 | 300 | 8.0 | 12.9 | 0.00 | 0.00 | 0.00 | 87 | 1019.8 |
| 20260902010032 | 17 | 306 | 6.4 | 11.3 | 0.00 | 0.00 | 0.00 | 87 | 1020.0 |
| 20260902004530 | 17 | 298 | 6.4 | 11.3 | 0.00 | 0.00 | 0.00 | 87 | 1020.0 |
| 20260902003036 | 17 | 294 | 8.0 | 11.3 | 0.00 | 0.00 | 0.00 | 87 | 1020.0 |
| 20260902001531 | 17 | 294 | 6.4 | 11.3 | 0.00 | 0.00 | 0.00 | 86 | 1020.1 |
| 20260902000028 | 17 | 288 | 6.4 | 11.3 | 0.00 | 0.00 | 0.00 | 86 | 1020.1 |
| 20260901234530 | 17 | 300 | 6.4 | 11.3 | 0.00 | 0.00 | 0.00 | 86 | 1020.0 |
| 20260901233030 | 17 | 290 | 8.0 | 16.1 | 0.00 | 0.00 | 0.00 | 86 | 1019.9 |
| 20260901231531 | 17 | 283 | 11.3 | 17.7 | 0.00 | 0.00 | 0.00 | 86 | 1019.8 |
| 20260901230044 | 17 | 272 | 12.9 | 16.1 | 0.00 | 0.00 | 0.00 | 86 | 1019.8 |
| 20260901224526 | 17 | 278 | 11.3 | 16.1 | 0.00 | 0.00 | 0.00 | 87 | 1019.7 |
| 20260901223033 | 18 | 271 | 11.3 | 17.7 | 0.00 | 0.00 | 0.00 | 87 | 1019.8 |
| 20260901221531 | 18 | 267 | 11.3 | 19.3 | 0.00 | 0.00 | 0.00 | 88 | 1019.9 |
| 20260901220043 | 18 | 267 | 11.3 | 16.1 | 0.00 | 0.00 | 0.00 | 89 | 1020.0 |
| 20260901214522 | 18 | 246 | 11.3 | 17.7 | 0.00 | 0.00 | 0.00 | 89 | 1020.0 |
| 20260901213029 | 18 | 268 | 14.5 | 22.5 | 0.00 | 0.00 | 0.00 | 88 | 1020.1 |
| 20260901211531 | 18 | 223 | 14.5 | 20.9 | 0.00 | 0.00 | 0.00 | 88 | 1020.1 |
| 20260901210037 | 18 | 249 | 12.9 | 17.7 | 0.00 | 0.00 | 0.00 | 88 | 1020.0 |
| 20260901204539 | 18 | 262 | 11.3 | 19.3 | 0.00 | 0.00 | 0.00 | 88 | 1019.9 |
| 20260901203042 | 18 | 245 | 12.9 | 20.9 | 0.00 | 0.00 | 0.00 | 87 | 1019.6 |
| 20260901201530 | 18 | 242 | 12.9 | 20.9 | 0.00 | 0.00 | 0.00 | 87 | 1019.5 |
| 20260901200045 | 18 | 232 | 14.5 | 24.1 | 0.00 | 0.00 | 0.00 | 86 | 1019.1 |
| 20260901194537 | 18 | 249 | 14.5 | 22.5 | 0.00 | 0.00 | 0.00 | 86 | 1019.1 |
| 20260901193034 | 19 | 248 | 14.5 | 22.5 | 0.00 | 0.00 | 0.00 | 85 | 1019.1 |
| 20260901191528 | 19 | 250 | 12.9 | 19.3 | 0.00 | 0.00 | 0.00 | 85 | 1018.8 |
| 20260901190048 | 19 | 248 | 12.9 | 22.5 | 0.00 | 0.00 | 0.00 | 84 | 1018.7 |
| 20260901184540 | 20 | 217 | 14.5 | 24.1 | 0.00 | 0.00 | 0.00 | 82 | 1018.7 |
| 20260901183035 | 20 | 223 | 12.9 | 20.9 | 0.00 | 0.00 | 0.00 | 82 | 1018.7 |
| 20260901181534 | 20 | 250 | 11.3 | 22.5 | 0.00 | 0.00 | 0.00 | 82 | 1018.8 |
| 20260901180031 | 20 | 229 | 12.9 | 27.4 | 0.00 | 0.00 | 0.00 | 82 | 1018.8 |
| 20260901174535 | 20 | 225 | 17.7 | 29.0 | 0.00 | 0.00 | 0.00 | 81 | 1018.7 |
| 20260901173032 | 20 | 190 | 8.0 | 24.1 | 0.00 | 0.00 | 0.00 | 82 | 1018.8 |
| 20260901171534 | 20 | 181 | 11.3 | 22.5 | 0.00 | 0.00 | 0.00 | 83 | 1018.7 |
| 20260901170030 | 21 | 229 | 12.9 | 27.4 | 0.00 | 0.00 | 0.00 | 81 | 1018.6 |
| 20260901164510 | 21 | 226 | 12.9 | 24.1 | 0.00 | 0.00 | 0.00 | 80 | 1018.5 |
| 20260901163023 | 21 | 236 | 14.5 | 22.5 | 0.00 | 0.00 | 0.00 | 81 | 1018.7 |
| 20260901161519 | 20 | 204 | 9.7 | 20.9 | 0.00 | 0.00 | 0.00 | 82 | 1018.6 |
| 20260901160026 | 20 | 194 | 11.3 | 24.1 | 0.00 | 0.00 | 0.00 | 82 | 1018.4 |
| 20260901154532 | 20 | 228 | 11.3 | 19.3 | 0.00 | 0.00 | 0.00 | 81 | 1018.6 |
| 20260901153027 | 21 | 232 | 14.5 | 22.5 | 0.00 | 0.00 | 0.00 | 79 | 1018.5 |
| 20260901151523 | 21 | 203 | 14.5 | 25.7 | 0.00 | 0.00 | 0.00 | 78 | 1018.6 |
| 20260901150031 | 21 | 219 | 12.9 | 25.7 | 0.00 | 0.00 | 0.00 | 77 | 1018.7 |
| 20260901144530 | 21 | 164 | 14.5 | 29.0 | 0.00 | 0.00 | 0.00 | 75 | 1018.6 |
| 20260901143037 | 22 | 200 | 14.5 | 29.0 | 0.00 | 0.00 | 0.00 | 74 | 1018.8 |
| 20260901141516 | 23 | 223 | 6.4 | 19.3 | 0.00 | 0.00 | 0.00 | 71 | 1019.0 |
| 20260901140026 | 22 | 227 | 11.3 | 17.7 | 0.00 | 0.00 | 0.00 | 77 | 1019.1 |
| 20260901134530 | 21 | 190 | 9.7 | 24.1 | 0.00 | 0.00 | 0.00 | 78 | 1019.2 |
| 20260901133037 | 21 | 209 | 14.5 | 22.5 | 0.00 | 0.00 | 0.00 | 77 | 1019.1 |
| 20260901131514 | 21 | 213 | 14.5 | 25.7 | 0.00 | 0.00 | 0.00 | 74 | 1019.2 |